Aérodrome :
LOGIN :

S'inscrire | Disclaimer

   EN    FR    IT 

 










Légende :    VFR   VFR Marginal   IFR   IFR Intensif   IFR Très Intensif
Visi : 
Plafond : 
>= 8 km
>= 3000ft
5 à 8 km
1000 à 3000 ft
1500m à 5 km
500 à 1000 ft
800 à 1500m
200 à 500 ft
< 800m
< 200 ft
Symboles :   Orages  Brouillard  Fortes neiges  Fortes précipitations  Vent > 20 kt
SIGMETs :   Divers  Orages  Givrage  Turbulence  Onde Orograph.  Cendres Volcan.







- Altitude de l'aérodrome : 699 ft
- Code IATA : PAD


EDLP - Paderborn Lippstadt

DERNIER METAR :
  • 220250Z 24011KT 9999 SCT032 10/07 Q1017

METARs EXPIRÉS :
  • 220220Z 24013KT 9999 SCT032 10/07 Q1017
  • 220150Z 24011KT 9999 SCT036 BKN048 11/07 Q1017
  • 220120Z 24015KT 9999 SCT029 BKN047 10/07 Q1017
  • 220050Z 25013G24KT 220V280 9999 SCT029 BKN047 10/07 Q1016 RERA
  • 220020Z 25012KT 220V300 9999 RA BKN031 10/08 Q1016

TAF AMD TAF EDLP
Valide du 22 à 00h jusqu'au 23 à 00h UTC


220040Z 2200/2224 24015KT 9999 SCT045
TEMPO 2200/2202 RA
BECMG 2200/2202 24010KT
BECMG 2207/2210 24015G25KT
BECMG 2216/2219 22006KT
Pas de NOTAMs connus pour ce terrain.



MET'MAP, la Météo Aéronautique d'un coup d'oeil ! - Copyright ORBIFLY Décembre 2007 - Disclaimer

ORBIFLY MET'MAP TEAM :

Programmation & Développement : Alexandra Zaïnal
Conception & Développement : Baudouin d'Aumeries
Co-Programmation & Développement : Marc-Olivier Méhu
Soutien technique & logistique : Manuel Goepfert

Contact : metmap@orbifly.com




SOURCES & CREDITS :

   NOAA